Time;durP1;ratioP1;P1;durP2;ratioP2;P2;SDS_P1;SDS_P2;PMS_P1;PMS_P2;Temp;Humidity;BMP_temperature;BMP_pressure;BME280_temperature;BME280_humidity;BME280_pressure;Samples;Min_cycle;Max_cycle;Signal;HPM_P1;HPM_P2
2021/10/28 04:40:51;;;;;;;25.33;16.67;;;12.00;98.30;;;;;;5000252;23;20504;-82
2021/10/28 04:43:55;;;;;;;27.70;16.27;;;12.00;98.30;;;;;;5003217;23;20437;-82
2021/10/28 06:17:37;;;;;;;21.43;13.13;;;10.40;98.30;;;;;;4864115;24;20464;-83
2021/10/28 06:19:43;;;;;;;24.97;15.40;;;10.40;98.30;;;;;;4922370;23;20454;-83
2021/10/28 06:21:51;;;;;;;22.33;14.20;;;10.40;98.30;;;;;;4932969;23;20448;-83
2021/10/28 06:24:11;;;;;;;21.20;14.57;;;10.40;98.30;;;;;;5068717;23;20450;-83
2021/10/28 06:26:18;;;;;;;23.87;15.13;;;10.40;98.30;;;;;;5072386;23;20518;-83
2021/10/28 06:28:26;;;;;;;25.33;14.50;;;10.40;98.30;;;;;;5097257;23;20465;-82
2021/10/28 06:30:48;;;;;;;19.00;13.93;;;10.40;98.30;;;;;;5097516;23;20867;-83
2021/10/28 06:33:13;;;;;;;20.53;13.97;;;10.40;98.30;;;;;;5097371;23;20431;-83
2021/10/28 06:35:37;;;;;;;19.53;14.00;;;10.40;98.30;;;;;;5098261;23;20419;-83
2021/10/28 06:37:47;;;;;;;18.40;13.73;;;10.40;98.30;;;;;;5088682;23;20583;-83
2021/10/28 06:39:55;;;;;;;18.87;14.13;;;10.40;98.30;;;;;;5098541;23;20450;-82
2021/10/28 06:42:07;;;;;;;24.50;13.67;;;10.50;98.30;;;;;;5098960;23;20404;-86
2021/10/28 06:47:01;;;;;;;19.47;14.30;;;10.50;98.30;;;;;;5174485;23;20744;-83
2021/10/28 06:50:06;;;;;;;22.50;12.60;;;10.60;98.30;;;;;;5166954;22;20523;-83
2021/10/28 06:52:49;;;;;;;20.47;14.10;;;10.60;98.30;;;;;;5167097;23;20420;-83
2021/10/28 06:55:04;;;;;;;17.77;12.40;;;10.60;98.30;;;;;;5175402;23;20514;-82
2021/10/28 06:57:30;;;;;;;17.43;12.37;;;10.80;98.30;;;;;;5174125;23;20440;-83
2021/10/28 07:02:29;;;;;;;16.93;12.83;;;10.80;98.30;;;;;;5097152;23;20449;-83
2021/10/28 07:04:49;;;;;;;16.13;11.90;;;10.80;98.30;;;;;;5134243;23;20437;-83
2021/10/28 07:07:07;;;;;;;20.43;14.03;;;10.70;98.30;;;;;;5174477;23;20428;-85
2021/10/28 07:09:20;;;;;;;17.97;12.17;;;10.70;98.30;;;;;;5174492;22;20827;-83
2021/10/28 07:11:32;;;;;;;16.30;11.77;;;10.80;98.30;;;;;;5174933;23;20471;-83
2021/10/28 07:13:55;;;;;;;16.97;13.20;;;10.90;98.30;;;;;;5174632;23;20433;-82
2021/10/28 07:18:27;;;;;;;22.03;12.90;;;11.10;98.30;;;;;;5174760;23;20460;-83
2021/10/28 07:21:03;;;;;;;18.70;12.53;;;11.20;98.30;;;;;;5166602;23;20409;-83
2021/10/28 07:35:03;;;;;;;14.30;12.00;;;11.70;98.30;;;;;;5161917;23;20436;-82
2021/10/28 07:54:58;;;;;;;16.30;11.50;;;11.90;98.30;;;;;;5088587;23;20474;-82
2021/10/28 08:14:41;;;;;;;14.20;10.37;;;13.00;98.30;;;;;;5095446;23;20465;-83
2021/10/28 08:20:16;;;;;;;17.33;10.63;;;13.20;98.30;;;;;;5023957;23;20439;-83
2021/10/28 08:23:08;;;;;;;13.40;9.73;;;13.30;98.30;;;;;;5102632;23;20515;-83
2021/10/28 08:31:13;;;;;;;14.33;10.70;;;13.20;98.30;;;;;;5113574;23;20466;-82
2021/10/28 08:33:21;;;;;;;14.87;11.30;;;13.40;98.30;;;;;;5095700;23;20425;-83
2021/10/28 08:35:29;;;;;;;15.50;11.60;;;13.40;98.30;;;;;;5120809;23;20909;-83
2021/10/28 08:37:41;;;;;;;13.67;10.80;;;13.50;98.30;;;;;;5172647;23;20447;-83
2021/10/28 08:40:14;;;;;;;13.80;11.03;;;13.80;98.30;;;;;;5162477;22;20808;-82
2021/10/28 08:42:23;;;;;;;16.77;11.57;;;13.90;98.30;;;;;;5173004;23;20745;-83
2021/10/28 08:47:45;;;;;;;16.10;11.67;;;14.30;98.30;;;;;;5160776;23;20427;-82
2021/10/28 08:50:06;;;;;;;12.27;10.97;;;14.20;98.30;;;;;;5165255;22;20451;-82
2021/10/28 08:58:36;;;;;;;16.10;10.63;;;14.30;98.30;;;;;;5162355;23;20465;-83
2021/10/28 09:32:36;;;;;;;15.23;10.80;;;15.30;98.30;;;;;;4999876;23;20409;-83
2021/10/28 09:53:24;;;;;;;13.53;9.40;;;16.10;98.30;;;;;;4999480;23;20378;-83
2021/10/28 12:01:50;;;;;;;6.80;6.20;;;22.70;91.30;;;;;;5178497;23;20427;-83
2021/10/28 12:20:57;;;;;;;5.77;5.17;;;23.90;86.80;;;;;;5197753;22;20462;-83
2021/10/28 12:25:39;;;;;;;6.17;4.63;;;24.40;87.00;;;;;;5185047;22;20426;-83
2021/10/28 12:28:06;;;;;;;7.03;4.90;;;24.70;86.10;;;;;;5184178;23;20511;-83
2021/10/28 12:56:51;;;;;;;5.03;4.53;;;25.30;82.10;;;;;;5183891;23;20428;-84
2021/10/28 13:04:00;;;;;;;4.60;3.93;;;25.20;82.40;;;;;;5184821;23;20454;-83
2021/10/28 13:06:27;;;;;;;7.13;4.23;;;25.70;81.90;;;;;;5176627;23;20812;-83
2021/10/28 13:48:46;;;;;;;3.93;3.10;;;24.80;82.60;;;;;;5175225;22;20412;-84
2021/10/28 13:51:21;;;;;;;3.50;3.20;;;24.90;82.50;;;;;;5175089;23;20710;-84
2021/10/28 13:56:03;;;;;;;4.70;3.00;;;24.50;82.80;;;;;;5175199;23;20447;-84
2021/10/28 13:58:20;;;;;;;3.50;3.10;;;24.30;83.30;;;;;;5174460;23;20420;-83
2021/10/28 14:00:50;;;;;;;3.70;2.73;;;24.10;84.40;;;;;;5174726;22;20563;-83
2021/10/28 14:20:07;;;;;;;4.07;2.57;;;25.40;80.60;;;;;;5141091;22;20463;-84
2021/10/28 14:22:42;;;;;;;2.87;2.60;;;25.20;80.90;;;;;;5175352;23;20757;-84
2021/10/28 14:32:36;;;;;;;3.63;2.70;;;24.70;81.10;;;;;;5136235;23;20521;-84
2021/10/28 15:29:14;;;;;;;3.10;2.80;;;21.00;89.10;;;;;;5166143;22;20448;-84
2021/10/28 15:31:40;;;;;;;3.67;3.37;;;21.00;88.70;;;;;;5165720;23;20419;-84
2021/10/28 15:34:12;;;;;;;4.20;3.37;;;20.60;89.60;;;;;;5166081;23;20456;-84
2021/10/28 15:36:20;;;;;;;3.90;3.27;;;20.50;90.20;;;;;;5174814;23;20810;-84
2021/10/28 15:38:33;;;;;;;3.10;2.90;;;20.30;90.70;;;;;;5174003;23;20515;-84
2021/10/28 15:48:20;;;;;;;4.83;3.33;;;19.50;93.10;;;;;;5165600;23;20438;-84
2021/10/28 16:21:51;;;;;;;3.93;3.63;;;16.50;98.30;;;;;;5174524;23;20495;-84
2021/10/28 16:23:54;;;;;;;4.53;3.80;;;16.40;98.30;;;;;;5174882;23;20405;-84
2021/10/28 16:25:57;;;;;;;5.80;3.38;;;16.30;98.30;;;;;;5173825;23;20423;-84
2021/10/28 16:28:00;;;;;;;5.70;4.27;;;16.10;98.30;;;;;;5174322;23;20508;-84
2021/10/28 16:30:07;;;;;;;4.40;3.50;;;16.00;98.30;;;;;;5165671;22;20520;-84
2021/10/28 16:32:10;;;;;;;4.00;3.50;;;16.00;98.30;;;;;;5174322;23;20913;-84
2021/10/28 16:34:14;;;;;;;4.27;3.87;;;16.00;98.30;;;;;;5174078;23;20511;-84
2021/10/28 16:36:18;;;;;;;6.10;3.70;;;15.90;98.30;;;;;;5174343;23;20511;-84
2021/10/28 16:38:23;;;;;;;5.57;4.13;;;15.80;98.30;;;;;;5173539;23;20748;-84
2021/10/28 16:40:27;;;;;;;4.70;3.90;;;15.70;98.30;;;;;;5174028;22;20478;-84
2021/10/28 16:42:30;;;;;;;5.83;4.33;;;15.80;98.30;;;;;;5180536;23;20428;-84
2021/10/28 16:44:33;;;;;;;8.03;4.70;;;15.80;98.30;;;;;;5183062;23;20440;-84
2021/10/28 16:46:38;;;;;;;5.23;4.73;;;15.70;98.30;;;;;;5182860;23;20447;-84
2021/10/28 16:48:41;;;;;;;5.67;4.80;;;15.60;98.30;;;;;;5175196;22;20477;-84
2021/10/28 16:50:45;;;;;;;6.27;4.40;;;15.50;98.30;;;;;;5183428;23;20420;-85
2021/10/28 16:52:48;;;;;;;6.07;4.40;;;15.40;98.30;;;;;;5184652;23;20506;-83
2021/10/28 16:54:51;;;;;;;6.57;4.70;;;15.40;98.30;;;;;;5184239;23;20429;-84
2021/10/28 16:56:54;;;;;;;5.70;4.60;;;15.30;98.30;;;;;;5178665;23;20428;-84
2021/10/28 16:58:57;;;;;;;5.40;4.90;;;15.30;98.30;;;;;;5173094;22;21022;-84
2021/10/28 17:01:00;;;;;;;5.13;4.63;;;15.20;98.30;;;;;;5173359;23;20450;-84
2021/10/28 17:03:05;;;;;;;5.50;4.30;;;15.20;98.30;;;;;;5165017;23;20428;-84
2021/10/28 17:05:10;;;;;;;5.30;4.80;;;15.10;98.30;;;;;;5173380;23;20812;-85
2021/10/28 17:07:13;;;;;;;6.67;4.53;;;15.10;98.30;;;;;;5173061;23;20463;-85
2021/10/28 17:09:16;;;;;;;5.20;4.67;;;15.00;98.30;;;;;;5165215;22;20539;-84
2021/10/28 17:11:19;;;;;;;5.50;4.97;;;15.00;98.30;;;;;;5173287;23;20420;-85
2021/10/28 17:13:22;;;;;;;7.50;5.03;;;15.00;98.30;;;;;;5173536;23;20412;-84
2021/10/28 17:15:26;;;;;;;5.40;4.30;;;15.00;98.30;;;;;;5173340;23;20434;-85
2021/10/28 17:17:29;;;;;;;6.83;5.20;;;14.90;98.30;;;;;;5172950;23;20854;-85
2021/10/28 17:19:33;;;;;;;6.33;4.43;;;14.90;98.30;;;;;;5173596;22;20765;-84
2021/10/28 17:21:37;;;;;;;6.67;4.30;;;14.80;98.30;;;;;;5173719;23;20436;-84
2021/10/28 17:23:46;;;;;;;4.73;4.23;;;14.90;98.30;;;;;;5165344;23;20427;-84
2021/10/28 17:25:56;;;;;;;7.07;4.63;;;14.80;98.30;;;;;;5173694;23;20423;-84
2021/10/28 17:27:59;;;;;;;9.00;5.60;;;14.80;98.30;;;;;;5173053;23;20434;-84
2021/10/28 17:30:04;;;;;;;5.23;4.30;;;14.70;98.30;;;;;;5173683;22;21032;-85
2021/10/28 17:32:07;;;;;;;5.87;4.77;;;14.70;98.30;;;;;;5173582;23;20913;-84
2021/10/28 17:34:12;;;;;;;8.20;4.97;;;14.80;98.30;;;;;;5165733;23;20441;-84
2021/10/28 17:36:16;;;;;;;6.03;4.93;;;14.70;98.30;;;;;;5173777;23;21103;-85
2021/10/28 17:38:19;;;;;;;6.03;4.27;;;14.60;98.30;;;;;;5173529;23;20444;-84
2021/10/28 17:40:24;;;;;;;5.00;4.50;;;14.60;98.30;;;;;;5173728;22;20458;-84
2021/10/28 17:42:28;;;;;;;6.00;5.20;;;14.70;98.30;;;;;;5173659;23;20446;-84
2021/10/28 17:44:38;;;;;;;5.00;4.50;;;14.60;98.30;;;;;;5173627;23;20434;-84
2021/10/28 17:46:41;;;;;;;6.43;5.87;;;14.50;98.30;;;;;;5173631;23;20514;-84
2021/10/28 17:48:44;;;;;;;6.57;4.60;;;14.50;98.30;;;;;;5173803;22;20515;-84
2021/10/28 17:50:48;;;;;;;6.77;5.27;;;14.40;98.30;;;;;;5173884;23;20451;-84
2021/10/28 17:52:52;;;;;;;8.93;5.70;;;14.40;98.30;;;;;;5173962;23;20885;-84
2021/10/28 17:55:00;;;;;;;13.03;5.70;;;14.30;98.30;;;;;;5173906;23;20502;-84
2021/10/28 17:57:04;;;;;;;5.87;5.27;;;14.30;98.30;;;;;;5172948;23;20489;-84
2021/10/28 17:59:08;;;;;;;7.97;5.63;;;14.30;98.30;;;;;;5172787;22;20453;-84
2021/10/28 18:01:14;;;;;;;6.60;6.00;;;14.30;98.30;;;;;;5172181;23;20462;-84
2021/10/28 18:03:20;;;;;;;8.40;7.07;;;14.20;98.30;;;;;;5164636;23;20426;-85
2021/10/28 18:05:24;;;;;;;10.67;7.43;;;14.10;98.30;;;;;;5173567;23;20423;-85
2021/10/28 18:07:28;;;;;;;9.80;7.47;;;14.00;98.30;;;;;;5173841;23;21199;-86
2021/10/28 18:27:47;;;;;;;12.97;8.37;;;13.90;98.30;;;;;;5212708;22;20428;-86
2021/10/28 18:30:05;;;;;;;9.77;8.13;;;13.90;98.30;;;;;;5164411;22;20451;-85
2021/10/28 22:26:10;;;;;;;15.53;12.63;;;11.40;98.30;;;;;;5225332;22;20447;-83
